createdAt,value
2019-02-09T00:01:40.919Z,1.20
2019-02-09T00:04:14.877Z,1.20
2019-02-09T00:06:46.118Z,1.20
2019-02-09T00:09:26.534Z,1.10
2019-02-09T00:12:05.241Z,1.10
2019-02-09T00:14:39.404Z,1.00
2019-02-09T00:17:19.422Z,1.00
2019-02-09T00:19:52.409Z,1.00
2019-02-09T00:22:26.363Z,1.00
2019-02-09T00:25:00.009Z,1.00
2019-02-09T00:27:47.601Z,0.90
2019-02-09T00:30:46.069Z,0.90
2019-02-09T00:33:21.742Z,1.00
2019-02-09T00:35:52.867Z,1.00
2019-02-09T00:38:24.376Z,1.10
2019-02-09T00:40:55.816Z,1.10
2019-02-09T00:43:31.418Z,1.10
2019-02-09T00:46:19.844Z,1.10
2019-02-09T00:48:50.809Z,1.10
2019-02-09T00:51:22.006Z,1.10
2019-02-09T00:53:54.459Z,1.10
2019-02-09T00:56:25.655Z,1.10
2019-02-09T00:59:04.469Z,1.10
2019-02-09T01:01:35.648Z,1.10
2019-02-09T01:04:06.939Z,1.10
2019-02-09T01:06:41.916Z,1.10
2019-02-09T01:09:13.566Z,1.00
2019-02-09T01:11:49.113Z,1.00
2019-02-09T01:14:23.112Z,1.10
2019-02-09T01:16:54.295Z,1.10
2019-02-09T01:19:25.448Z,1.10
2019-02-09T01:21:56.608Z,1.10
2019-02-09T01:24:30.793Z,1.10
2019-02-09T01:27:01.843Z,1.10
2019-02-09T01:29:47.664Z,1.00
2019-02-09T01:32:19.042Z,1.10
2019-02-09T01:34:53.201Z,1.10
2019-02-09T01:37:24.361Z,1.10
2019-02-09T01:39:55.476Z,1.10
2019-02-09T01:42:27.478Z,1.10
2019-02-09T01:45:03.629Z,1.10
2019-02-09T01:47:36.250Z,1.10
2019-02-09T01:50:16.542Z,1.10
2019-02-09T01:53:00.977Z,1.10
2019-02-09T01:55:34.519Z,1.20
2019-02-09T01:58:13.770Z,1.20
2019-02-09T02:00:42.875Z,1.20
2019-02-09T02:03:20.011Z,1.20
2019-02-09T02:05:51.171Z,1.20
2019-02-09T02:08:24.002Z,1.20
2019-02-09T02:10:56.619Z,1.20
2019-02-09T02:13:34.924Z,1.20
2019-02-09T02:16:08.128Z,1.20
2019-02-09T02:18:39.196Z,1.20
2019-02-09T02:21:10.302Z,1.20
2019-02-09T02:23:50.170Z,1.30
2019-02-09T02:26:21.316Z,1.30
2019-02-09T02:32:40.831Z,1.30
2019-02-09T02:35:12.042Z,1.30
2019-02-09T02:37:43.094Z,1.30
2019-02-09T02:40:15.958Z,1.40
2019-02-09T02:42:47.025Z,1.40
2019-02-09T02:45:29.940Z,1.40
2019-02-09T02:48:04.271Z,1.40
2019-02-09T02:50:35.343Z,1.40
2019-02-09T02:53:16.442Z,1.30
2019-02-09T02:55:47.491Z,1.30
2019-02-09T02:58:20.372Z,1.30
2019-02-09T03:00:51.432Z,1.30
2019-02-09T03:03:22.598Z,1.20
2019-02-09T03:05:56.618Z,1.20
2019-02-09T03:08:27.747Z,1.20
2019-02-09T03:11:03.556Z,1.20
2019-02-09T03:13:33.622Z,1.10
2019-02-09T03:16:10.523Z,1.20
2019-02-09T03:18:41.583Z,1.10
2019-02-09T03:21:12.653Z,1.10
2019-02-09T03:23:43.707Z,1.00
2019-02-09T03:26:17.824Z,1.00
2019-02-09T03:28:51.848Z,1.00
2019-02-09T03:31:22.889Z,1.00
2019-02-09T03:33:53.972Z,1.00
2019-02-09T03:36:25.045Z,0.90
2019-02-09T03:38:56.386Z,0.90
2019-02-09T03:41:30.230Z,0.90
2019-02-09T03:44:01.304Z,0.90
2019-02-09T03:46:32.430Z,0.90
2019-02-09T03:49:06.071Z,0.90
2019-02-09T03:51:37.128Z,0.90
2019-02-09T03:54:08.199Z,0.90
2019-02-09T03:56:39.566Z,0.90
2019-02-09T03:59:10.644Z,0.90
2019-02-09T04:01:41.734Z,0.90
2019-02-09T04:04:15.927Z,0.90
2019-02-09T04:06:47.010Z,0.90
2019-02-09T04:09:18.057Z,0.90
2019-02-09T04:11:49.126Z,0.90
2019-02-09T04:14:20.283Z,0.90
2019-02-09T04:16:51.334Z,0.90
2019-02-09T04:19:22.381Z,0.90
2019-02-09T04:21:53.448Z,0.90
2019-02-09T04:24:25.574Z,0.90
2019-02-09T04:26:59.426Z,0.90
2019-02-09T04:29:30.460Z,0.90
2019-02-09T04:32:01.619Z,0.90
2019-02-09T04:34:32.774Z,1.00
2019-02-09T04:37:05.235Z,1.00
2019-02-09T04:39:37.209Z,1.00
2019-02-09T04:42:08.300Z,1.00
2019-02-09T04:44:39.367Z,1.00
2019-02-09T04:47:10.409Z,1.00
2019-02-09T04:49:41.504Z,1.00
2019-02-09T04:52:12.577Z,1.00
2019-02-09T04:54:43.613Z,1.10
2019-02-09T04:57:14.716Z,1.10
2019-02-09T04:59:45.843Z,1.10
2019-02-09T05:02:16.929Z,1.10
2019-02-09T05:04:48.067Z,1.20
2019-02-09T05:07:20.945Z,1.20
2019-02-09T05:09:51.990Z,1.10
2019-02-09T05:12:33.502Z,1.10
2019-02-09T05:15:20.992Z,1.10
2019-02-09T05:18:02.043Z,1.20
2019-02-09T05:20:33.083Z,1.20
2019-02-09T05:23:06.478Z,1.20
2019-02-09T05:25:37.579Z,1.30
2019-02-09T05:28:08.765Z,1.30
2019-02-09T05:30:39.856Z,1.20
2019-02-09T05:33:12.558Z,1.20
2019-02-09T05:35:43.702Z,1.20
2019-02-09T05:38:14.869Z,1.20
2019-02-09T05:40:45.938Z,1.20
2019-02-09T05:43:17.066Z,1.20
2019-02-09T05:45:48.152Z,1.20
2019-02-09T05:48:19.270Z,1.20
2019-02-09T05:50:50.324Z,1.20
2019-02-09T05:53:21.388Z,1.20
2019-02-09T05:55:52.433Z,1.30
2019-02-09T05:58:23.531Z,1.40
2019-02-09T06:00:54.718Z,1.40
2019-02-09T06:03:25.834Z,1.50
2019-02-09T06:05:56.889Z,1.50
2019-02-09T06:08:27.975Z,1.60
2019-02-09T06:10:59.037Z,1.60
2019-02-09T06:13:30.091Z,1.60
2019-02-09T06:16:01.169Z,1.70
2019-02-09T06:18:32.209Z,1.70
2019-02-09T06:21:03.276Z,1.70
2019-02-09T06:23:34.374Z,1.80
2019-02-09T06:26:05.626Z,1.80
2019-02-09T06:28:36.693Z,1.90
2019-02-09T06:31:07.832Z,1.90
2019-02-09T06:33:41.862Z,1.90
2019-02-09T06:36:14.179Z,1.90
2019-02-09T06:38:45.219Z,2.00
2019-02-09T06:41:16.388Z,2.00
2019-02-09T06:43:47.538Z,2.10
2019-02-09T06:46:18.659Z,2.10
2019-02-09T06:48:49.735Z,2.20
2019-02-09T06:51:20.892Z,2.30
2019-02-09T06:53:55.176Z,2.40
2019-02-09T06:56:26.321Z,2.50
2019-02-09T06:58:57.476Z,2.50
2019-02-09T07:01:28.565Z,2.60
2019-02-09T07:04:01.244Z,2.70
2019-02-09T07:09:42.182Z,2.80
2019-02-09T07:12:15.622Z,2.90
2019-02-09T07:14:46.831Z,3.00
2019-02-09T07:17:17.993Z,3.00
2019-02-09T07:19:52.854Z,3.00
2019-02-09T07:22:24.851Z,3.20
2019-02-09T07:24:56.048Z,3.30
2019-02-09T07:27:27.192Z,3.40
2019-02-09T07:29:58.413Z,3.60
2019-02-09T07:32:29.714Z,3.60
2019-02-09T07:35:02.208Z,3.70
2019-02-09T07:37:34.912Z,3.80
2019-02-09T07:40:07.324Z,3.90
2019-02-09T07:42:38.936Z,4.10
2019-02-09T07:45:19.708Z,4.20
2019-02-09T07:47:51.037Z,4.30
2019-02-09T07:50:23.410Z,4.30
2019-02-09T07:52:56.117Z,4.40
2019-02-09T07:55:56.899Z,4.40
2019-02-09T07:58:28.216Z,4.40
2019-02-09T08:00:59.478Z,4.40
2019-02-09T08:03:30.688Z,4.50
2019-02-09T08:06:01.878Z,4.60
2019-02-09T08:08:37.211Z,4.70
2019-02-09T08:11:09.453Z,4.70
2019-02-09T08:14:03.574Z,4.90
2019-02-09T08:16:39.717Z,4.90
2019-02-09T08:19:12.139Z,5.10
2019-02-09T08:21:43.363Z,5.10
2019-02-09T08:24:14.535Z,5.20
2019-02-09T08:26:45.722Z,5.30
2019-02-09T08:29:22.859Z,5.40
2019-02-09T08:31:54.317Z,5.50
2019-02-09T08:34:30.732Z,5.60
2019-02-09T08:37:09.727Z,5.60
2019-02-09T08:40:13.966Z,5.60
2019-02-09T08:42:52.568Z,5.60
2019-02-09T08:45:29.197Z,5.50
2019-02-09T08:48:12.801Z,5.60
2019-02-09T08:50:55.952Z,5.60
2019-02-09T08:53:37.924Z,5.60
2019-02-09T08:56:15.160Z,5.70
2019-02-09T08:58:52.415Z,5.70
2019-02-09T09:01:29.816Z,5.70
2019-02-09T09:04:02.398Z,5.70
2019-02-09T09:06:34.017Z,5.70
2019-02-09T09:09:14.073Z,5.80
2019-02-09T09:11:53.591Z,5.80
2019-02-09T09:14:51.359Z,5.80
2019-02-09T09:17:31.685Z,5.80
2019-02-09T09:20:09.619Z,5.80
2019-02-09T09:23:11.077Z,5.90
2019-02-09T09:25:43.384Z,5.90
2019-02-09T09:28:16.060Z,6.00
2019-02-09T09:30:47.264Z,6.10
2019-02-09T09:33:19.924Z,6.10
2019-02-09T09:35:52.625Z,6.20
2019-02-09T09:38:23.856Z,6.30
2019-02-09T09:41:08.191Z,6.30
2019-02-09T09:43:42.097Z,6.40
2019-02-09T09:46:29.471Z,6.60
2019-02-09T09:49:03.567Z,6.70
2019-02-09T09:51:34.654Z,6.90
2019-02-09T09:54:08.799Z,7.00
2019-02-09T09:56:39.936Z,7.10
2019-02-09T09:59:11.223Z,7.20
2019-02-09T10:01:42.310Z,7.30
2019-02-09T10:04:15.323Z,7.40
2019-02-09T10:06:46.509Z,7.50
2019-02-09T10:10:20.563Z,7.60
2019-02-09T10:12:55.458Z,7.70
2019-02-09T10:15:27.044Z,7.70
2019-02-09T10:17:59.340Z,7.90
2019-02-09T10:20:30.618Z,7.90
2019-02-09T10:23:01.873Z,7.90
2019-02-09T10:25:33.089Z,7.90
2019-02-09T10:28:04.913Z,7.80
2019-02-09T10:30:39.482Z,7.80
2019-02-09T10:33:12.265Z,7.80
2019-02-09T10:35:43.558Z,7.70
2019-02-09T10:38:15.928Z,7.70
2019-02-09T10:40:47.218Z,7.60
2019-02-09T10:43:18.515Z,7.60
2019-02-09T10:45:51.688Z,7.60
2019-02-09T10:48:27.643Z,7.70
2019-02-09T10:51:06.350Z,7.70
2019-02-09T10:53:37.628Z,7.70
2019-02-09T10:56:08.793Z,7.70
2019-02-09T10:58:40.046Z,7.70
2019-02-09T11:01:17.217Z,7.70
2019-02-09T11:03:48.453Z,7.70
2019-02-09T11:06:19.864Z,7.80
2019-02-09T11:08:51.060Z,7.90
2019-02-09T11:11:22.204Z,7.90
2019-02-09T11:13:53.409Z,8.10
2019-02-09T11:16:24.910Z,8.30
2019-02-09T11:19:06.875Z,8.40
2019-02-09T11:21:37.980Z,8.40
2019-02-09T11:24:11.261Z,8.50
2019-02-09T11:26:44.421Z,8.70
2019-02-09T11:29:15.701Z,8.80
2019-02-09T11:31:46.865Z,8.80
2019-02-09T11:34:18.095Z,8.80
2019-02-09T11:36:49.312Z,8.90
2019-02-09T11:39:20.591Z,9.00
2019-02-09T11:41:52.174Z,9.10
2019-02-09T11:44:23.314Z,9.10
2019-02-09T11:46:55.278Z,9.10
2019-02-09T11:49:29.277Z,9.10
2019-02-09T11:52:00.529Z,9.10
2019-02-09T11:54:34.257Z,9.10
2019-02-09T11:57:05.534Z,9.20
2019-02-09T11:59:36.859Z,9.30
2019-02-09T12:02:11.036Z,9.30
2019-02-09T12:04:42.550Z,9.30
2019-02-09T12:07:15.868Z,9.30
2019-02-09T12:09:47.256Z,9.40
2019-02-09T12:12:18.539Z,9.40
2019-02-09T12:14:50.418Z,9.50
2019-02-09T12:17:21.775Z,9.40
2019-02-09T12:19:53.252Z,9.40
2019-02-09T12:22:24.790Z,9.50
2019-02-09T12:24:57.563Z,9.60
2019-02-09T12:27:28.859Z,9.60
2019-02-09T12:30:00.280Z,9.70
2019-02-09T12:32:31.547Z,9.70
2019-02-09T12:35:03.071Z,9.80
2019-02-09T12:37:34.333Z,9.90
2019-02-09T12:40:10.193Z,10.00
2019-02-09T12:42:41.685Z,10.10
2019-02-09T12:45:17.067Z,10.10
2019-02-09T12:47:48.781Z,10.10
2019-02-09T12:50:20.873Z,10.10
2019-02-09T12:52:55.721Z,10.10
2019-02-09T12:55:28.103Z,10.10
2019-02-09T12:57:59.531Z,10.20
2019-02-09T13:00:36.967Z,10.20
2019-02-09T13:03:20.204Z,10.30
2019-02-09T13:05:54.505Z,10.20
2019-02-09T13:08:28.565Z,9.90
2019-02-09T13:11:00.110Z,9.80
2019-02-09T13:13:35.687Z,9.70
2019-02-09T13:16:07.297Z,9.60
2019-02-09T13:18:50.040Z,9.50
2019-02-09T13:21:21.397Z,9.40
2019-02-09T13:23:52.694Z,9.30
2019-02-09T13:26:24.488Z,9.30
2019-02-09T13:28:55.807Z,9.20
2019-02-09T13:31:27.167Z,9.20
2019-02-09T13:33:58.528Z,9.10
2019-02-09T13:36:30.020Z,9.00
2019-02-09T13:39:01.321Z,9.00
2019-02-09T13:41:33.768Z,8.90
2019-02-09T13:44:05.340Z,9.00
2019-02-09T13:46:36.555Z,8.90
2019-02-09T13:49:07.819Z,8.90
2019-02-09T13:51:39.369Z,9.00
2019-02-09T13:54:10.979Z,9.00
2019-02-09T13:56:42.493Z,9.00
2019-02-09T13:59:14.080Z,9.00
2019-02-09T14:01:45.568Z,9.00
2019-02-09T14:04:17.182Z,8.90
2019-02-09T14:06:49.014Z,8.90
2019-02-09T14:09:20.958Z,8.90
2019-02-09T14:11:54.069Z,9.00
2019-02-09T14:14:26.414Z,9.00
2019-02-09T14:17:01.006Z,9.10
2019-02-09T14:19:38.369Z,9.10
2019-02-09T14:22:11.028Z,9.10
2019-02-09T14:25:01.837Z,9.50
2019-02-09T14:27:34.395Z,9.80
2019-02-09T14:30:09.303Z,10.20
2019-02-09T14:32:49.162Z,10.40
2019-02-09T14:35:59.133Z,10.50
2019-02-09T14:38:40.871Z,10.60
2019-02-09T14:41:35.188Z,10.60
2019-02-09T14:44:07.707Z,10.60
2019-02-09T14:46:42.866Z,10.50
2019-02-09T14:49:14.065Z,10.50
2019-02-09T14:51:49.513Z,10.70
2019-02-09T14:54:20.599Z,10.80
2019-02-09T14:56:55.951Z,10.90
2019-02-09T14:59:27.102Z,10.90
2019-02-09T15:01:59.765Z,10.70
2019-02-09T15:04:34.655Z,10.70
2019-02-09T15:07:23.629Z,10.70
2019-02-09T15:09:55.945Z,10.80
2019-02-09T15:12:37.437Z,10.70
2019-02-09T15:18:19.868Z,9.70
2019-02-09T15:22:00.338Z,9.30
2019-02-09T15:23:49.522Z,9.10
2019-02-09T15:26:20.762Z,8.90
2019-02-09T15:28:53.074Z,8.80
2019-02-09T15:31:24.852Z,8.70
2019-02-09T15:33:57.520Z,8.60
2019-02-09T15:36:33.920Z,8.50
2019-02-09T15:39:09.766Z,8.40
2019-02-09T15:41:40.918Z,8.40
2019-02-09T15:44:12.123Z,8.30
2019-02-09T15:46:43.334Z,8.20
2019-02-09T15:49:14.454Z,8.10
2019-02-09T15:51:45.548Z,8.00
2019-02-09T15:54:16.652Z,7.90
2019-02-09T15:56:47.706Z,7.90
2019-02-09T15:59:18.838Z,7.80
2019-02-09T16:01:50.010Z,7.80
2019-02-09T16:04:21.287Z,7.70
2019-02-09T16:06:52.469Z,7.60
2019-02-09T16:09:23.549Z,7.60
2019-02-09T16:11:54.684Z,7.50
2019-02-09T16:14:27.807Z,7.50
2019-02-09T16:16:58.985Z,7.40
2019-02-09T16:19:30.073Z,7.50
2019-02-09T16:22:01.205Z,7.50
2019-02-09T16:24:32.359Z,7.50
2019-02-09T16:27:03.463Z,7.60
2019-02-09T16:29:34.680Z,7.60
2019-02-09T16:32:06.070Z,7.50
2019-02-09T16:34:37.207Z,7.60
2019-02-09T16:37:08.294Z,7.60
2019-02-09T16:39:39.819Z,7.60
2019-02-09T16:42:10.929Z,7.50
2019-02-09T16:44:42.082Z,7.40
2019-02-09T16:47:13.277Z,7.30
2019-02-09T16:49:44.532Z,7.30
2019-02-09T16:52:15.770Z,7.30
2019-02-09T16:54:46.933Z,7.30
2019-02-09T16:57:18.174Z,7.30
2019-02-09T16:59:50.347Z,7.30
2019-02-09T17:02:21.537Z,7.40
2019-02-09T17:04:52.718Z,7.30
2019-02-09T17:07:23.860Z,7.20
2019-02-09T17:09:55.026Z,7.20
2019-02-09T17:12:26.218Z,7.10
2019-02-09T17:14:57.344Z,7.10
2019-02-09T17:17:28.528Z,7.10
2019-02-09T17:19:59.635Z,7.00
2019-02-09T17:22:30.787Z,7.00
2019-02-09T17:25:01.904Z,7.00
2019-02-09T17:27:33.147Z,7.00
2019-02-09T17:30:05.719Z,7.00
2019-02-09T17:32:36.808Z,6.90
2019-02-09T17:35:08.980Z,6.80
2019-02-09T17:37:40.044Z,6.70
2019-02-09T17:40:13.233Z,6.80
2019-02-09T17:42:44.510Z,6.70
2019-02-09T17:45:18.923Z,6.70
2019-02-09T17:47:50.136Z,6.70
2019-02-09T17:50:21.377Z,6.70
2019-02-09T17:52:53.282Z,6.70
2019-02-09T17:55:24.412Z,6.60
2019-02-09T17:57:58.309Z,6.60
2019-02-09T18:00:35.562Z,6.50
2019-02-09T18:03:07.103Z,6.50
2019-02-09T18:05:41.978Z,6.50
2019-02-09T18:08:13.949Z,6.50
2019-02-09T18:10:45.150Z,6.50
2019-02-09T18:13:32.748Z,6.50
2019-02-09T18:16:11.980Z,6.50
2019-02-09T18:18:44.721Z,6.50
2019-02-09T18:21:19.783Z,6.50
2019-02-09T18:23:59.282Z,6.40
2019-02-09T18:26:32.012Z,6.40
2019-02-09T18:29:06.601Z,6.50
2019-02-09T18:31:38.603Z,6.30
2019-02-09T18:34:12.120Z,6.10
2019-02-09T18:36:47.463Z,5.80
2019-02-09T18:39:21.945Z,5.50
2019-02-09T18:41:56.301Z,5.20
2019-02-09T18:44:29.377Z,5.00
2019-02-09T18:47:02.399Z,4.80
2019-02-09T18:49:36.184Z,4.80
2019-02-09T18:52:07.862Z,4.90
2019-02-09T18:54:39.252Z,5.00
2019-02-09T18:57:10.408Z,5.30
2019-02-09T18:59:41.713Z,5.50
2019-02-09T19:02:14.173Z,5.60
2019-02-09T19:04:45.395Z,5.80
2019-02-09T19:07:19.760Z,5.80
2019-02-09T19:09:51.259Z,5.90
2019-02-09T19:12:22.635Z,6.00
2019-02-09T19:14:53.773Z,6.00
2019-02-09T19:17:25.043Z,6.20
2019-02-09T19:19:56.359Z,6.30
2019-02-09T19:22:27.526Z,6.40
2019-02-09T19:24:58.950Z,6.40
2019-02-09T19:27:30.386Z,6.40
2019-02-09T19:30:04.554Z,6.40
2019-02-09T19:32:38.208Z,6.40
2019-02-09T19:35:12.055Z,6.50
2019-02-09T19:37:42.643Z,6.60
2019-02-09T19:40:14.780Z,6.60
2019-02-09T19:42:47.963Z,6.50
2019-02-09T19:45:25.238Z,6.50
2019-02-09T19:48:05.801Z,6.70
2019-02-09T19:50:42.811Z,6.80
2019-02-09T19:53:19.579Z,6.80
2019-02-09T19:55:56.918Z,6.80
2019-02-09T19:58:30.462Z,6.80
2019-02-09T20:01:07.653Z,6.80
2019-02-09T20:03:44.807Z,6.80
2019-02-09T20:06:22.882Z,6.80
2019-02-09T20:08:55.788Z,6.80
2019-02-09T20:11:30.340Z,6.80
2019-02-09T20:14:05.884Z,6.80
2019-02-09T20:16:42.568Z,6.80
2019-02-09T20:19:16.287Z,6.70
2019-02-09T20:21:52.382Z,6.80
2019-02-09T20:24:30.619Z,6.70
2019-02-09T20:27:07.176Z,6.70
2019-02-09T20:29:41.723Z,6.70
2019-02-09T20:32:16.863Z,6.70
2019-02-09T20:34:54.641Z,6.70
2019-02-09T20:37:29.195Z,6.80
2019-02-09T20:40:07.604Z,6.80
2019-02-09T20:42:43.211Z,6.90
2019-02-09T20:45:14.556Z,7.00
2019-02-09T20:47:57.888Z,6.90
2019-02-09T20:50:40.308Z,6.90
2019-02-09T20:53:24.087Z,6.90
2019-02-09T20:56:08.223Z,6.80
2019-02-09T20:58:42.107Z,6.70
2019-02-09T21:01:30.697Z,6.70
2019-02-09T21:04:22.455Z,6.70
2019-02-09T21:06:57.462Z,6.60
2019-02-09T21:09:30.982Z,6.70
2019-02-09T21:12:02.130Z,6.70
2019-02-09T21:14:38.177Z,6.70
2019-02-09T21:17:10.927Z,6.70
2019-02-09T21:19:42.206Z,6.70
2019-02-09T21:22:13.448Z,6.70
2019-02-09T21:24:44.670Z,6.70
2019-02-09T21:27:21.236Z,6.70
2019-02-09T21:29:54.635Z,6.60
2019-02-09T21:32:25.843Z,6.60
2019-02-09T21:34:56.987Z,6.50
2019-02-09T21:37:28.110Z,6.50
2019-02-09T21:40:00.332Z,6.50
2019-02-09T21:42:31.580Z,6.50
2019-02-09T21:45:10.043Z,6.40
2019-02-09T21:48:03.380Z,6.50
2019-02-09T21:50:43.366Z,6.40
2019-02-09T21:53:17.676Z,6.50
2019-02-09T21:55:48.855Z,6.50
2019-02-09T21:58:19.942Z,6.50
2019-02-09T22:00:51.167Z,6.50
2019-02-09T22:03:22.359Z,6.50
2019-02-09T22:05:53.468Z,6.50
2019-02-09T22:08:24.615Z,6.50
2019-02-09T22:10:55.789Z,6.50
2019-02-09T22:13:26.895Z,6.50
2019-02-09T22:16:26.271Z,6.50
2019-02-09T22:19:15.249Z,6.50
2019-02-09T22:21:50.191Z,6.40
2019-02-09T22:24:26.391Z,6.40
2019-02-09T22:27:01.245Z,6.30
2019-02-09T22:29:37.792Z,6.30
2019-02-09T22:33:37.632Z,6.30
2019-02-09T22:36:14.548Z,6.30
2019-02-09T22:38:45.746Z,6.40
2019-02-09T22:41:16.806Z,6.40
2019-02-09T22:43:47.954Z,6.30
2019-02-09T22:46:19.017Z,6.30
2019-02-09T22:48:50.095Z,6.30
2019-02-09T22:51:21.259Z,6.30
2019-02-09T22:53:52.510Z,6.30
2019-02-09T22:56:23.606Z,6.30
2019-02-09T22:58:54.798Z,6.40
2019-02-09T23:01:49.042Z,6.40
2019-02-09T23:04:28.843Z,6.40
2019-02-09T23:07:04.142Z,6.40
2019-02-09T23:09:42.464Z,6.40
2019-02-09T23:12:37.474Z,6.40
2019-02-09T23:15:26.993Z,6.30
2019-02-09T23:18:00.386Z,6.40
2019-02-09T23:20:35.303Z,6.40
2019-02-09T23:23:06.732Z,6.50
2019-02-09T23:25:37.880Z,6.50
2019-02-09T23:28:09.197Z,6.40
2019-02-09T23:30:40.427Z,6.50
2019-02-09T23:33:11.703Z,6.50
2019-02-09T23:35:42.813Z,6.50
2019-02-09T23:38:14.012Z,6.50
2019-02-09T23:40:45.124Z,6.50
2019-02-09T23:43:16.516Z,6.60
2019-02-09T23:45:49.350Z,6.60
2019-02-09T23:48:20.521Z,6.50
2019-02-09T23:50:51.626Z,6.50
2019-02-09T23:53:23.161Z,6.50
2019-02-09T23:55:54.327Z,6.40
2019-02-09T23:58:25.619Z,6.40
